• Join FlightAware (Why Join?)
  • Login
  • US Flag 
08:00AM EDT


 

Airport Tracker/Info


-or-


 

Live Flight TrackerFlight Track Log ✈ EMD24 ✈ 24-Jun-2013 ✈ KAPA - KGLD

Flight Track Log - Related Links

Times and Time Zones

All times are in EDT time to prevent confusion due to time zone crossing. See the EMD24 flight status page for this flight to view local times or setup timezone preferences in your user account.

Time Position Orientation Groundspeed Altitude Reporting Facility
EDT Latitude Longitude Course Direction KTS MPH feet Rate Location/Type
03:33PM 39.5333 -104.8167 90° East 139 160 7,400  Level Denver TRACON
03:34PM 39.5333 -104.7667 90° East 166 191 8,200 840 Climbing Denver TRACON
03:34PM 39.5333 -104.7000 90° East 174 200 9,000 720 Climbing Denver TRACON
03:36PM 39.5239 -104.6178 98° East 201 231 9,800 540 Climbing Denver Center
03:38PM 39.8000 -104.5651 90° East  Level FlightAware Approximate
03:38PM 39.5183 -104.4708 93° East 206 237 10,900  Level Denver Center
03:39PM 39.5167 -104.3972 92° East 237 273 10,900  Level Denver Center
03:40PM 39.5128 -104.2931 93° East 236 272 10,900  Level Denver Center
03:41PM 39.5106 -104.2056 92° East 245 282 10,900  Level Denver Center
03:42PM 39.5061 -104.1144 94° East 239 275 10,900  Level Denver Center
03:43PM 39.5042 -104.0281 92° East 243 280 11,000  Climbing Denver Center
03:44PM 39.5014 -103.9353 92° East 245 282 11,000 -60 Level Denver Center
03:45PM 39.4967 -103.8517 94° East 239 275 10,900 -60 Descending Denver Center
03:46PM 39.4903 -103.7686 96° East 235 270 10,900 720 Level Denver Center
03:47PM 39.4914 -103.6953 89° East 203 234 12,400 1,080 Climbing Denver Center
03:49PM 39.4849 -103.5839 94° East  Level FlightAware Approximate
03:50PM 39.4833 -103.5081 94° East 175 201 15,500  Level Denver Center
03:51PM 39.4811 -103.4453 93° East 176 203 16,600 660 Climbing Denver Center
03:52PM 39.4775 -103.3631 93° East 191 220 16,900 120 Climbing Denver Center
03:53PM 39.4728 -103.2819 94° East 222 255 16,900  Level Denver Center
03:54PM 39.4669 -103.2008 95° East 226 260 16,900  Level Denver Center
03:55PM 39.4631 -103.1172 93° East 233 268 16,900  Level Denver Center
03:56PM 39.4534 -103.0702 94° East  Level FlightAware Approximate
03:56PM 39.4583 -103.0317 94° East 237 273 16,900  Level Denver Center
03:57PM 39.4547 -102.9478 93° East 236 272 16,900  Level Denver Center
03:58PM 39.4506 -102.8622 94° East 238 274 16,900  Level Denver Center
03:59PM 39.4483 -102.7622 92° East 234 269 16,900  Level Denver Center
04:00PM 39.4431 -102.6797 95° East 232 267 16,900 60 Level Denver Center
04:01PM 39.4400 -102.5964 93° East 232 267 17,100 60 Climbing Denver Center
04:02PM 39.4336 -102.5161 96° East 227 261 17,100 -300 Level Denver Center
04:03PM 39.4281 -102.4308 95° East 237 273 16,500 -780 Descending Denver Center
04:04PM 39.4256 -102.3297 92° East 254 292 15,600 -840 Descending Denver Center
04:05PM 39.4194 -102.2392 95° East 263 303 14,800 -840 Descending Denver Center
04:07PM 39.4144 -102.1358 94° East 258 297 13,900 -960 Descending Denver Center
04:08PM 39.4089 -102.0425 94° East 267 307 12,900 -1,020 Descending Denver Center
04:09PM 39.4022 -101.9517 95° East 267 307 11,800 -1,500 Descending Denver Center
04:10PM 39.3900 -101.8472 99° East 266 306 9,900 -1,740 Descending Denver Center
04:11PM 39.3722 -101.7611 105° East 263 303 8,300 -1,080 Descending Denver Center
04:12PM 39.3289 -101.6906 128° Southeast 253 291 7,800 -540 Descending Denver Center
04:14PM 39.3667 -101.6833 North  Level FlightAware Approximate